Terminal Aerodrome Forecast
Issued by NWS San Angelo, TX

Home | Current Version | Previous Version | Text Only | Print | Product List | Glossary On
Versions: 1 2 3 4 5 6 7 8 9 10 11 12 13 14 15 16 17 18 19 20
000
FTUS44 KSJT 200300 AAA
TAFSJT
TAF AMD
KSJT 200307Z 2003/2024 18008KT P6SM BKN060 BKN250
     FM200400 18014G22KT 6SM -TSRA BKN050CB
     FM200700 18010KT P6SM -SHRA OVC050
     FM201000 16010KT P6SM BKN015
     FM201800 17012KT P6SM BKN025
     FM202100 17012KT P6SM BKN035=

USA.gov is the U.S. government's official web portal to all federal, state and local government web resources and services.